Tropical Cyclones
[Index]
Main Index Home Page Stock Weather Photos Extreme Storms Discussion Storm News and Storm Chasing Reports Tropical Cyclones / Hurricanes / Typhoons Weather Data and Links Wild Fires / Bushfires Weather Observation Techniques Weather Picture Catalogue Tornado Pictures and Reports Stock Video Footage and DVDs for sale
Season 2009-2010 Tropical Cyclone OLI Track Map
Season 2009-2010 Summaries: [BoM-AU] [JTWC-AU] [JTWC-SIO] [JTWC-SPAC] [JTWC-SH]
<<- Previous TC | JTWC 2009-2010 Season | Next TC ->>

click for intensity scale information  Lat/long Grid: Show Hide

 Date Labels: Show Hide

Joint Typhoon Warning Centre Cyclone Data

Name: OLI

30 Jan 2010 06:00 UTC to 07 Feb 2010 00:00 UTC

    date/time    lat    long     hPa   cat  kts
2010-01-30 06   10.9   176.9W   1007         20          
2010-01-30 12   10.7   175.4W   1004         25          
2010-01-30 18   10.8   174.0W   1000         30          
2010-01-31 00   10.8   172.6W   1000         30          
2010-01-31 06   10.7   171.2W   1000         30          
2010-01-31 12   10.8   169.7W   1000         30          
2010-01-31 18   11.2   168.0W    997         30          
2010-02-01 00   11.7   166.2W    996         35          
2010-02-01 06   12.6   164.5W    989    1    45          
2010-02-01 12   13.4   163.1W    985    1    50          
2010-02-01 18   13.9   162.1W    985    1    50          
2010-02-02 00   14.2   161.4W    985    1    50          
2010-02-02 06   14.2   160.6W    985    1    50          
2010-02-02 12   14.6   159.6W    985    1    50          
2010-02-02 18   15.0   158.5W    985    1    50          
2010-02-03 00   15.3   157.4W    982    2    55          
2010-02-03 00   15.3   157.4W    982    2    55          
2010-02-03 06   15.5   156.3W    978    2    60          
2010-02-03 06   15.5   156.3W    978    2    60          
2010-02-03 12   15.8   155.2W    974    2    65          
2010-02-03 12   15.8   155.2W    974    2    65          
2010-02-03 18   16.4   154.2W    967    3    75          
2010-02-03 18   16.4   154.2W    967    3    75          
2010-02-03 18   16.4   154.2W    967    3    75          
2010-02-04 00   17.1   153.4W    959    3    85          
2010-02-04 00   17.1   153.4W    959    3    85          
2010-02-04 00   17.1   153.4W    959    3    85          
2010-02-04 06   17.9   152.7W    952    3    95          
2010-02-04 06   17.9   152.7W    952    3    95          
2010-02-04 06   17.9   152.7W    952    3    95          
2010-02-04 12   18.8   152.2W    937    4   115          
2010-02-04 12   18.8   152.2W    937    4   115          
2010-02-04 12   18.8   152.2W    937    4   115          
2010-02-04 18   19.7   151.7W    937    4   115          
2010-02-04 18   19.7   151.7W    937    4   115          
2010-02-04 18   19.7   151.7W    937    4   115          
2010-02-05 00   20.6   151.2W    937    4   115          
2010-02-05 00   20.6   151.2W    937    4   115          
2010-02-05 00   20.6   151.2W    937    4   115          
2010-02-05 06   21.6   150.5W    941    4   110          
2010-02-05 06   21.6   150.5W    941    4   110          
2010-02-05 06   21.6   150.5W    941    4   110          
2010-02-05 12   22.8   149.7W    944    4   105          
2010-02-05 12   22.8   149.7W    944    4   105          
2010-02-05 12   22.8   149.7W    944    4   105          
2010-02-05 18   24.1   148.9W    956    3    90          
2010-02-05 18   24.1   148.9W    956    3    90          
2010-02-05 18   24.1   148.9W    956    3    90          
2010-02-06 00   25.6   148.0W    963    3    80          
2010-02-06 00   25.6   148.0W    963    3    80          
2010-02-06 00   25.6   148.0W    963    3    80          
2010-02-06 06   27.1   146.8W    974    2    65          
2010-02-06 06   27.1   146.8W    974    2    65          
2010-02-06 12   28.5   145.5W    982    2    55          
2010-02-06 12   28.5   145.5W    982    2    55          
2010-02-06 18   29.8   144.1W    985    1    50          
2010-02-07 00   31.3   141.7W    993    1    40          
Winds are 1-min average.

Tropical cyclone tracks developed by Michael Bath using data from the Joint Typhoon Warning Centre Best Tracks and Google Maps.


[Australian Severe Weather index] [Copyright Notice] [Email Contacts] [Search This Site] [Privacy Policy]
Document: tropical_cyclone_oli.htm Updated: 28 June 2017